Detall de PIREP

Printer-friendly versionPDF version

[2014/03/14 10:10:00]
Flight IATA:CT1005
Pilot Number:042
Company ICAO:CAT
Aircraft Type:B738/F
PAX:110
Departing Airport: LEBL
Destination Airport: LIPZ
Alternate Airport:LIMC
Online: VATSIM
Route:AGENA UM985 UNANA UM985 OSKOR UL615 ADOSA L612 ALBET
Flight Level:F300
No Slew and time accel
No pause
Crash detect
Detect pilot in Cockpit between each 30 and 45 minutes
10:10 Zero fuel Weight: 121807 Lbs, Fuel Weight: 45535 Lbs
10:10 VATSIM:LEBL 140930Z 32010KT 300V360 9999 FEW028 12/04 Q1026 NOSIG
10:10 VATSIM:LIPZ 140950Z VRB03KT 7000 NSC 14/07 Q1026
10:11 VOICE CATALONIAN/EU TOUR
10:23 Parking Brakes off
10:49 Take-off
10:49 Take off Weight: 165708 Lbs
10:49 Wind: 330º @ 003 Knots Heading: 242º
10:49 POS N41º 16´ 59´´ E002º 04´ 41´´
10:49 Flaps:3 at 176 Knots
10:49 Gear Up: 178 Knots
10:49 Flaps:2 at 236 Knots
10:50 Flaps:1 at 248 Knots
10:50 Flaps:0 at 295 Knots
11:04 Wind:343º@001 Knots Heading: 052º Ground Speed: 450 Knots Altitude 21715 ft
11:19 Wind:358º@008 Knots Heading: 038º Ground Speed: 466 Knots Altitude 27145 ft
11:23 TOC
11:23 Fuel Weight: 38265 Lb
11:34 Wind:120º@005 Knots Heading: 054º Ground Speed: 499 Knots Altitude 30413 ft
11:49 Wind:090º@003 Knots Heading: 030º Ground Speed: 508 Knots Altitude 30410 ft
11:54 TOD
11:54 Fuel Weight: 35209 Lb
12:04 Wind:162º@001 Knots Heading: 146º Ground Speed: 337 Knots Altitude 15295 ft
12:05 Flaps:1 at 257 Knots
12:14 Flaps:2 at 187 Knots
12:15 Flaps:3 at 176 Knots
12:16 Gear Down: 185 Knots
12:17 Flaps:4 at 178 Knots
12:17 Flaps:5 at 175 Knots
12:17 Flaps:6 at 168 Knots
12:17 Flaps:7 at 156 Knots
12:19 Wind:166º@001 Knots Heading: 042º Ground Speed: 150 Knots Altitude 856 ft
12:20 TouchDown:Rate -74 ft/min Speed: 143 Knots
12:20 VATSIM:LIPZ 141150Z VRB03KT 6000 NSC 16/07 Q1025
12:20 Land
12:20 Wind:166º@001 Knots
12:20 Heading: 043º
12:20 Flight Duration: 01:31
12:20 Landing Weight: 155905 Lbs
12:20 POS N45º 30´ 15´´ E012º 21´ 02´´
12:24 Parking brakes on
12:24 Block to Block Duration: 02:01
12:24 Final Fuel: 33723 Lbls
12:24 Spent Fuel: 11812 Lbls
12:24 Flight Length: 592 NM
12:24 TOD Land Length: 98 NM

Exportar CSV

Powered by Drupal - Modified by Danger4k